createdAt,value
2016-12-14T00:00:44.026Z,0
2016-12-14T00:01:53.507Z,0
2016-12-14T00:03:03.465Z,0
2016-12-14T00:04:12.936Z,0
2016-12-14T00:05:22.444Z,0
2016-12-14T00:06:31.941Z,0
2016-12-14T00:07:41.781Z,0
2016-12-14T00:08:51.588Z,0
2016-12-14T00:10:01.384Z,0
2016-12-14T00:11:11.252Z,0
2016-12-14T00:12:21.215Z,0
2016-12-14T00:13:30.713Z,0
2016-12-14T00:14:40.512Z,0
2016-12-14T00:15:50.289Z,0
2016-12-14T00:16:59.805Z,0
2016-12-14T00:18:09.619Z,0
2016-12-14T00:19:19.099Z,0
2016-12-14T00:20:28.914Z,0
2016-12-14T00:21:38.698Z,0
2016-12-14T00:22:47.866Z,0
2016-12-14T00:23:57.357Z,0
2016-12-14T00:25:06.338Z,0
2016-12-14T00:26:15.829Z,0
2016-12-14T00:27:25.420Z,0
2016-12-14T00:28:34.946Z,0
2016-12-14T00:29:44.110Z,0
2016-12-14T00:30:53.624Z,0
2016-12-14T00:32:03.138Z,0
2016-12-14T00:33:12.973Z,0
2016-12-14T00:34:22.448Z,0
2016-12-14T00:35:32.276Z,0
2016-12-14T00:36:42.082Z,0
2016-12-14T00:37:51.256Z,0
2016-12-14T00:39:00.752Z,0
2016-12-14T00:40:10.235Z,0
2016-12-14T00:41:20.035Z,0
2016-12-14T00:42:29.198Z,0
2016-12-14T00:43:38.364Z,0
2016-12-14T00:44:48.181Z,0
2016-12-14T00:45:57.976Z,0
2016-12-14T00:47:07.778Z,0
2016-12-14T00:48:17.610Z,0
2016-12-14T00:49:27.421Z,0
2016-12-14T00:50:37.219Z,0
2016-12-14T00:51:46.701Z,0
2016-12-14T00:52:56.500Z,0
2016-12-14T00:54:06.080Z,0
2016-12-14T00:55:15.272Z,0
2016-12-14T00:56:25.128Z,0
2016-12-14T00:57:34.946Z,0
2016-12-14T00:58:44.744Z,0
2016-12-14T00:59:54.540Z,0
2016-12-14T01:01:04.350Z,0
2016-12-14T01:02:13.848Z,0
2016-12-14T01:03:23.355Z,0
2016-12-14T01:04:32.570Z,0
2016-12-14T01:05:42.367Z,0
2016-12-14T01:06:52.209Z,0
2016-12-14T01:08:02.033Z,0
2016-12-14T01:09:11.903Z,0
2016-12-14T01:10:21.558Z,0
2016-12-14T01:11:31.020Z,0
2016-12-14T01:12:40.186Z,0
2016-12-14T01:13:50.043Z,0
2016-12-14T01:14:59.833Z,0
2016-12-14T01:16:09.622Z,0
2016-12-14T01:17:18.470Z,0
2016-12-14T01:18:28.378Z,0
2016-12-14T01:19:37.864Z,0
2016-12-14T01:20:47.659Z,0
2016-12-14T01:21:57.528Z,0
2016-12-14T01:23:07.112Z,0
2016-12-14T01:24:16.618Z,0
2016-12-14T01:25:26.696Z,0
2016-12-14T01:26:36.182Z,0
2016-12-14T01:27:45.944Z,0
2016-12-14T01:28:55.423Z,0
2016-12-14T01:30:05.215Z,0
2016-12-14T01:31:14.689Z,0
2016-12-14T01:32:24.514Z,0
2016-12-14T01:33:33.698Z,0
2016-12-14T01:34:43.173Z,0
2016-12-14T01:35:52.747Z,0
2016-12-14T01:37:01.985Z,0
2016-12-14T01:38:11.808Z,0
2016-12-14T01:39:21.281Z,0
2016-12-14T01:40:31.280Z,0
2016-12-14T01:41:40.449Z,0
2016-12-14T01:42:50.003Z,0
2016-12-14T01:43:59.814Z,0
2016-12-14T01:45:09.378Z,0
2016-12-14T01:46:18.861Z,0
2016-12-14T01:47:28.366Z,0
2016-12-14T01:48:37.898Z,0
2016-12-14T01:49:47.694Z,0
2016-12-14T01:50:57.170Z,0
2016-12-14T01:52:06.680Z,0
2016-12-14T01:53:16.248Z,0
2016-12-14T01:54:25.778Z,0
2016-12-14T01:55:35.636Z,0
2016-12-14T01:56:45.427Z,0
2016-12-14T01:57:54.901Z,0
2016-12-14T01:59:04.785Z,0
2016-12-14T02:00:14.579Z,0
2016-12-14T02:01:24.066Z,0
2016-12-14T02:02:33.643Z,0
2016-12-14T02:03:43.570Z,0
2016-12-14T02:04:53.384Z,0
2016-12-14T02:06:02.557Z,0
2016-12-14T02:07:11.716Z,0
2016-12-14T02:08:21.607Z,0
2016-12-14T02:09:31.393Z,0
2016-12-14T02:10:40.874Z,0
2016-12-14T02:11:50.042Z,0
2016-12-14T02:12:59.546Z,0
2016-12-14T02:14:09.413Z,0
2016-12-14T02:15:19.218Z,0
2016-12-14T02:16:29.102Z,0
2016-12-14T02:17:38.579Z,0
2016-12-14T02:18:48.072Z,0
2016-12-14T02:19:57.931Z,0
2016-12-14T02:21:07.736Z,0
2016-12-14T02:22:16.932Z,0
2016-12-14T02:23:26.439Z,0
2016-12-14T02:24:35.933Z,0
2016-12-14T02:25:45.756Z,0
2016-12-14T02:26:55.317Z,0
2016-12-14T02:28:04.509Z,0
2016-12-14T02:29:14.007Z,0
2016-12-14T02:30:23.170Z,0
2016-12-14T02:31:32.717Z,0
2016-12-14T02:32:42.209Z,0
2016-12-14T02:33:52.004Z,0
2016-12-14T02:35:01.521Z,0
2016-12-14T02:36:11.007Z,0
2016-12-14T02:37:20.171Z,0
2016-12-14T02:38:29.976Z,0
2016-12-14T02:39:39.453Z,0
2016-12-14T02:40:49.262Z,0
2016-12-14T02:41:59.044Z,0
2016-12-14T02:43:08.522Z,0
2016-12-14T02:44:18.308Z,0
2016-12-14T02:45:28.147Z,0
2016-12-14T02:46:37.954Z,0
2016-12-14T02:47:47.143Z,0
2016-12-14T02:48:56.926Z,0
2016-12-14T02:50:06.712Z,0
2016-12-14T02:51:16.505Z,0
2016-12-14T02:52:26.336Z,0
2016-12-14T02:53:35.852Z,0
2016-12-14T02:54:45.376Z,0
2016-12-14T02:55:55.155Z,0
2016-12-14T02:57:04.971Z,0
2016-12-14T02:58:14.148Z,0
2016-12-14T02:59:23.631Z,0
2016-12-14T03:00:33.457Z,0
2016-12-14T03:01:43.301Z,0
2016-12-14T03:02:53.115Z,0
2016-12-14T03:04:02.957Z,0
2016-12-14T03:05:12.792Z,0
2016-12-14T03:06:22.300Z,0
2016-12-14T03:07:31.158Z,0
2016-12-14T03:08:40.964Z,0
2016-12-14T03:09:50.776Z,0
2016-12-14T03:10:59.936Z,0
2016-12-14T03:12:09.715Z,0
2016-12-14T03:13:19.490Z,0
2016-12-14T03:14:29.325Z,0
2016-12-14T03:15:38.816Z,0
2016-12-14T03:16:48.399Z,0
2016-12-14T03:17:58.169Z,0
2016-12-14T03:19:07.949Z,0
2016-12-14T03:20:17.725Z,0
2016-12-14T03:21:27.200Z,0
2016-12-14T03:22:37.042Z,0
2016-12-14T03:23:46.966Z,0
2016-12-14T03:24:56.126Z,0
2016-12-14T03:26:06.081Z,0
2016-12-14T03:27:15.545Z,0
2016-12-14T03:28:25.323Z,0
2016-12-14T03:29:35.191Z,0
2016-12-14T03:30:45.123Z,0
2016-12-14T03:31:53.996Z,0
2016-12-14T03:33:03.808Z,0
2016-12-14T03:34:13.625Z,0
2016-12-14T03:35:23.097Z,0
2016-12-14T03:36:32.627Z,0
2016-12-14T03:37:42.209Z,0
2016-12-14T03:38:51.736Z,0
2016-12-14T03:40:01.535Z,0
2016-12-14T03:41:11.337Z,0
2016-12-14T03:42:21.166Z,0
2016-12-14T03:43:30.762Z,0
2016-12-14T03:44:40.553Z,0
2016-12-14T03:45:50.036Z,0
2016-12-14T03:46:59.513Z,0
2016-12-14T03:48:09.389Z,0
2016-12-14T03:49:18.563Z,0
2016-12-14T03:50:27.749Z,0
2016-12-14T03:51:37.581Z,0
2016-12-14T03:52:47.081Z,0
2016-12-14T03:53:56.938Z,0
2016-12-14T03:55:06.727Z,0
2016-12-14T03:56:15.929Z,0
2016-12-14T03:57:25.735Z,0
2016-12-14T03:58:35.229Z,0
2016-12-14T03:59:45.021Z,0
2016-12-14T04:00:55.019Z,0
2016-12-14T04:02:04.498Z,0
2016-12-14T04:03:13.673Z,0
2016-12-14T04:04:23.200Z,0
2016-12-14T04:05:33.056Z,0
2016-12-14T04:06:42.226Z,0
2016-12-14T04:07:52.004Z,0
2016-12-14T04:09:02.057Z,0
2016-12-14T04:10:11.525Z,0
2016-12-14T04:11:21.305Z,0
2016-12-14T04:12:31.176Z,0
2016-12-14T04:13:40.671Z,0
2016-12-14T04:14:50.464Z,0
2016-12-14T04:16:00.282Z,0
2016-12-14T04:17:10.105Z,0
2016-12-14T04:18:19.911Z,0
2016-12-14T04:19:29.718Z,0
2016-12-14T04:20:38.923Z,0
2016-12-14T04:21:48.097Z,0
2016-12-14T04:22:57.585Z,0
2016-12-14T04:24:07.055Z,0
2016-12-14T04:25:16.966Z,0
2016-12-14T04:26:26.802Z,0
2016-12-14T04:27:36.589Z,0
2016-12-14T04:28:46.058Z,0
2016-12-14T04:29:55.840Z,0
2016-12-14T04:31:05.344Z,0
2016-12-14T04:32:14.825Z,0
2016-12-14T04:33:24.622Z,0
2016-12-14T04:34:34.121Z,0
2016-12-14T04:35:43.433Z,0
2016-12-14T04:36:53.299Z,0
2016-12-14T04:38:02.779Z,0
2016-12-14T04:39:12.256Z,0
2016-12-14T04:40:22.075Z,0
2016-12-14T04:41:31.856Z,0
2016-12-14T04:42:41.422Z,0
2016-12-14T04:43:50.918Z,0
2016-12-14T04:45:00.701Z,0
2016-12-14T04:46:10.170Z,0
2016-12-14T04:47:19.357Z,0
2016-12-14T04:48:28.535Z,0
2016-12-14T04:49:38.429Z,0
2016-12-14T04:50:47.923Z,0
2016-12-14T04:51:57.465Z,0
2016-12-14T04:53:06.314Z,0
2016-12-14T04:54:15.942Z,0
2016-12-14T04:55:25.432Z,0
2016-12-14T04:56:35.244Z,0
2016-12-14T04:57:45.083Z,0
2016-12-14T04:58:54.870Z,0
2016-12-14T05:00:04.662Z,0
2016-12-14T05:01:14.286Z,0
2016-12-14T05:02:23.800Z,0
2016-12-14T05:03:33.638Z,0
2016-12-14T05:04:43.472Z,0
2016-12-14T05:05:53.369Z,0
2016-12-14T05:07:02.850Z,0
2016-12-14T05:08:12.629Z,0
2016-12-14T05:09:22.404Z,0
2016-12-14T05:10:32.183Z,0
2016-12-14T05:11:41.963Z,0
2016-12-14T05:12:51.478Z,0
2016-12-14T05:14:00.956Z,0
2016-12-14T05:15:10.471Z,0
2016-12-14T05:16:20.266Z,0
2016-12-14T05:17:30.091Z,0
2016-12-14T05:18:39.903Z,0
2016-12-14T05:19:49.504Z,0
2016-12-14T05:20:59.336Z,0
2016-12-14T05:22:09.285Z,0
2016-12-14T05:23:18.766Z,0
2016-12-14T05:24:28.007Z,0
2016-12-14T05:25:37.794Z,0
2016-12-14T05:26:47.328Z,0
2016-12-14T05:27:56.869Z,0
2016-12-14T05:29:06.653Z,0
2016-12-14T05:30:16.489Z,0
2016-12-14T05:31:26.293Z,0
2016-12-14T05:32:35.466Z,0
2016-12-14T05:33:44.974Z,0
2016-12-14T05:34:54.900Z,0
2016-12-14T05:36:04.706Z,0
2016-12-14T05:37:14.560Z,0
2016-12-14T05:38:24.350Z,0
2016-12-14T05:39:34.152Z,0
2016-12-14T05:40:43.974Z,0
2016-12-14T05:41:53.135Z,0
2016-12-14T05:43:02.625Z,0
2016-12-14T05:44:12.428Z,0
2016-12-14T05:45:22.292Z,0
2016-12-14T05:46:32.262Z,0
2016-12-14T05:47:42.046Z,0
2016-12-14T05:48:51.834Z,0
2016-12-14T05:50:01.624Z,0
2016-12-14T05:51:11.140Z,0
2016-12-14T05:52:21.260Z,0
2016-12-14T05:53:30.734Z,0
2016-12-14T05:54:39.943Z,0
2016-12-14T05:55:49.592Z,0
2016-12-14T05:56:59.228Z,0
2016-12-14T05:58:08.744Z,0
2016-12-14T05:59:18.528Z,0
2016-12-14T06:00:28.142Z,0
2016-12-14T06:01:37.938Z,0
2016-12-14T06:02:47.418Z,0
2016-12-14T06:03:57.223Z,0
2016-12-14T06:05:07.073Z,0
2016-12-14T06:06:16.256Z,0
2016-12-14T06:07:26.076Z,0
2016-12-14T06:08:35.896Z,0
2016-12-14T06:09:45.907Z,0
2016-12-14T06:10:55.384Z,0
2016-12-14T06:12:05.176Z,0
2016-12-14T06:13:15.029Z,0
2016-12-14T06:14:24.198Z,0
2016-12-14T06:15:34.038Z,0
2016-12-14T06:16:43.813Z,0
2016-12-14T06:17:53.595Z,0
2016-12-14T06:19:03.372Z,0
2016-12-14T06:20:12.277Z,0
2016-12-14T06:21:22.114Z,0
2016-12-14T06:22:31.611Z,0
2016-12-14T06:23:41.427Z,0
2016-12-14T06:24:51.202Z,0
2016-12-14T06:26:00.703Z,0
2016-12-14T06:27:09.869Z,0
2016-12-14T06:28:19.420Z,0
2016-12-14T06:29:29.255Z,0
2016-12-14T06:30:38.417Z,0
2016-12-14T06:31:48.291Z,0
2016-12-14T06:32:58.058Z,0
2016-12-14T06:34:07.918Z,0
2016-12-14T06:35:17.397Z,0
2016-12-14T06:36:27.225Z,0
2016-12-14T06:37:36.382Z,0
2016-12-14T06:38:45.970Z,0
2016-12-14T06:39:55.766Z,0
2016-12-14T06:41:05.268Z,0
2016-12-14T06:42:14.854Z,0
2016-12-14T06:43:24.076Z,0
2016-12-14T06:44:33.570Z,0
2016-12-14T06:45:43.398Z,4
2016-12-14T06:46:53.008Z,4
2016-12-14T06:48:02.173Z,0
2016-12-14T06:49:12.004Z,4
2016-12-14T06:50:21.486Z,4
2016-12-14T06:51:31.295Z,4
2016-12-14T06:52:41.092Z,4
2016-12-14T06:53:50.602Z,8
2016-12-14T06:55:00.504Z,4
2016-12-14T06:56:09.972Z,8
2016-12-14T06:57:19.756Z,8
2016-12-14T06:58:29.238Z,8
2016-12-14T06:59:38.855Z,12
2016-12-14T07:00:48.335Z,12
2016-12-14T07:01:57.844Z,12
2016-12-14T07:03:07.684Z,16
2016-12-14T07:04:17.491Z,20
2016-12-14T07:05:26.958Z,20
2016-12-14T07:06:36.482Z,24
2016-12-14T07:07:46.265Z,24
2016-12-14T07:08:56.070Z,28
2016-12-14T07:10:05.857Z,32
2016-12-14T07:11:15.651Z,36
2016-12-14T07:12:24.840Z,36
2016-12-14T07:13:34.650Z,40
2016-12-14T07:14:43.838Z,44
2016-12-14T07:15:53.032Z,44
2016-12-14T07:17:02.830Z,44
2016-12-14T07:18:12.396Z,48
2016-12-14T07:19:22.179Z,52
2016-12-14T07:20:31.958Z,56
2016-12-14T07:21:41.739Z,60
2016-12-14T07:22:51.553Z,64
2016-12-14T07:24:01.085Z,60
2016-12-14T07:25:10.584Z,64
2016-12-14T07:26:20.066Z,68
2016-12-14T07:27:29.874Z,72
2016-12-14T07:28:39.661Z,84
2016-12-14T07:29:49.194Z,88
2016-12-14T07:30:59.163Z,92
2016-12-14T07:32:08.639Z,104
2016-12-14T07:33:18.156Z,108
2016-12-14T07:34:27.733Z,124
2016-12-14T07:35:36.890Z,124
2016-12-14T07:36:46.374Z,128
2016-12-14T07:37:55.993Z,136
2016-12-14T07:39:05.477Z,144
2016-12-14T07:40:15.281Z,156
2016-12-14T07:41:24.496Z,172
2016-12-14T07:42:34.003Z,192
2016-12-14T07:43:43.978Z,204
2016-12-14T07:44:53.788Z,236
2016-12-14T07:46:03.260Z,240
2016-12-14T07:47:12.890Z,244
2016-12-14T07:48:22.078Z,268
2016-12-14T07:49:31.244Z,252
2016-12-14T07:50:41.074Z,224
2016-12-14T07:51:50.847Z,208
2016-12-14T07:53:00.346Z,224
2016-12-14T07:54:10.179Z,236
2016-12-14T07:55:20.006Z,256
2016-12-14T07:56:29.488Z,304
2016-12-14T07:57:39.086Z,336
2016-12-14T07:58:48.395Z,364
2016-12-14T07:59:58.294Z,348
2016-12-14T08:01:07.855Z,340
2016-12-14T08:02:17.656Z,316
2016-12-14T08:03:27.468Z,328
2016-12-14T08:04:37.286Z,316
2016-12-14T08:05:47.077Z,324
2016-12-14T08:06:56.901Z,320
2016-12-14T08:08:06.803Z,336
2016-12-14T08:09:16.290Z,312
2016-12-14T08:10:26.070Z,336
2016-12-14T08:11:35.857Z,344
2016-12-14T08:12:45.640Z,336
2016-12-14T08:13:55.581Z,324
2016-12-14T08:15:05.078Z,336
2016-12-14T08:16:14.899Z,360
2016-12-14T08:17:24.405Z,364
2016-12-14T08:18:33.991Z,356
2016-12-14T08:19:43.779Z,368
2016-12-14T08:20:53.563Z,400
2016-12-14T08:22:03.079Z,400
2016-12-14T08:23:12.929Z,432
2016-12-14T08:24:22.823Z,520
2016-12-14T08:25:32.292Z,588
2016-12-14T08:26:41.821Z,624
2016-12-14T08:27:51.647Z,628
2016-12-14T08:29:01.427Z,616
2016-12-14T08:30:11.232Z,612
2016-12-14T08:31:20.425Z,596
2016-12-14T08:32:30.241Z,656
2016-12-14T08:33:39.414Z,692
2016-12-14T08:34:49.245Z,724
2016-12-14T08:35:58.734Z,864
2016-12-14T08:37:08.530Z,948
2016-12-14T08:38:18.121Z,1044
2016-12-14T08:39:27.930Z,1092
2016-12-14T08:40:37.748Z,1116
2016-12-14T08:41:47.531Z,1072
2016-12-14T08:42:57.342Z,1116
2016-12-14T08:44:06.989Z,1268
2016-12-14T08:45:16.516Z,1344
2016-12-14T08:46:26.299Z,1368
2016-12-14T08:47:36.303Z,1376
2016-12-14T08:48:46.077Z,1288
2016-12-14T08:49:55.590Z,1292
2016-12-14T08:51:05.375Z,1336
2016-12-14T08:52:15.313Z,1372
2016-12-14T08:53:25.173Z,1440
2016-12-14T08:54:34.968Z,1496
2016-12-14T08:55:44.783Z,1560
2016-12-14T08:56:54.587Z,1584
2016-12-14T08:58:04.095Z,1748
2016-12-14T08:59:14.047Z,1848
2016-12-14T09:00:23.226Z,2008
2016-12-14T09:01:33.165Z,2068
2016-12-14T09:02:42.411Z,1952
2016-12-14T09:03:51.883Z,1976
2016-12-14T09:05:01.713Z,2028
2016-12-14T09:06:11.498Z,2228
2016-12-14T09:07:21.026Z,2400
2016-12-14T09:08:30.826Z,2752
2016-12-14T09:09:40.687Z,2872
2016-12-14T09:10:49.579Z,2788
2016-12-14T09:11:59.366Z,2844
2016-12-14T09:13:08.846Z,2804
2016-12-14T09:14:18.401Z,2672
2016-12-14T09:15:28.249Z,2568
2016-12-14T09:16:37.757Z,2496
2016-12-14T09:17:47.644Z,2172
2016-12-14T09:18:57.400Z,1784
2016-12-14T09:20:07.014Z,1644
2016-12-14T09:21:16.188Z,1520
2016-12-14T09:22:25.973Z,1360
2016-12-14T09:23:35.478Z,1412
2016-12-14T09:24:44.965Z,1544
2016-12-14T09:25:54.774Z,1788
2016-12-14T09:27:04.362Z,1892
2016-12-14T09:28:14.150Z,1772
2016-12-14T09:29:23.661Z,1652
2016-12-14T09:30:33.485Z,1520
2016-12-14T09:31:42.982Z,1308
2016-12-14T09:32:52.787Z,1292
2016-12-14T09:34:02.691Z,1348
2016-12-14T09:35:12.210Z,1460
2016-12-14T09:36:21.699Z,1564
2016-12-14T09:37:31.488Z,1704
2016-12-14T09:38:41.007Z,1692
2016-12-14T09:39:50.792Z,1692
2016-12-14T09:41:00.768Z,1884
2016-12-14T09:42:10.619Z,1848
2016-12-14T09:43:20.131Z,1836
2016-12-14T09:44:29.914Z,1912
2016-12-14T09:45:39.703Z,1912
2016-12-14T09:46:49.481Z,1988
2016-12-14T09:47:59.275Z,1900
2016-12-14T09:49:08.749Z,2180
2016-12-14T09:50:18.602Z,2316
2016-12-14T09:51:28.402Z,2660
2016-12-14T09:52:37.579Z,2640
2016-12-14T09:53:47.138Z,2872
2016-12-14T09:54:56.949Z,2864
2016-12-14T09:56:06.448Z,3124
2016-12-14T09:57:15.627Z,2972
2016-12-14T09:58:25.544Z,2896
2016-12-14T09:59:35.048Z,2728
2016-12-14T10:00:44.888Z,2304
2016-12-14T10:01:54.386Z,1936
2016-12-14T10:03:04.182Z,1816
2016-12-14T10:04:13.995Z,1920
2016-12-14T10:05:23.198Z,2200
2016-12-14T10:06:32.696Z,2260
2016-12-14T10:07:42.183Z,2340
2016-12-14T10:08:51.755Z,2468
2016-12-14T10:10:01.381Z,2360
2016-12-14T10:11:11.224Z,2464
2016-12-14T10:12:20.706Z,2564
2016-12-14T10:13:30.191Z,2856
2016-12-14T10:14:39.986Z,3004
2016-12-14T10:15:49.796Z,3204
2016-12-14T10:16:59.576Z,3420
2016-12-14T10:18:08.836Z,3128
2016-12-14T10:19:18.630Z,3560
2016-12-14T10:20:28.100Z,3380
2016-12-14T10:21:37.884Z,3492
2016-12-14T10:22:47.387Z,3072
2016-12-14T10:23:57.210Z,2964
2016-12-14T10:25:06.708Z,2804
2016-12-14T10:26:16.292Z,2504
2016-12-14T10:27:25.835Z,2144
2016-12-14T10:28:35.001Z,2244
2016-12-14T10:29:44.167Z,2236
2016-12-14T10:30:53.725Z,2208
2016-12-14T10:32:03.249Z,2236
2016-12-14T10:33:12.715Z,2164
2016-12-14T10:34:22.272Z,2268
2016-12-14T10:35:31.752Z,2380
2016-12-14T10:36:40.924Z,2728
2016-12-14T10:37:50.592Z,2832
2016-12-14T10:39:00.105Z,2536
2016-12-14T10:40:09.607Z,2124
2016-12-14T10:41:19.403Z,1772
2016-12-14T10:42:29.315Z,1732
2016-12-14T10:43:38.798Z,1904
2016-12-14T10:44:48.476Z,1920
2016-12-14T10:45:58.281Z,1764
2016-12-14T10:47:08.059Z,1700
2016-12-14T10:48:17.544Z,1724
2016-12-14T10:49:27.401Z,1624
2016-12-14T10:50:36.902Z,1780
2016-12-14T10:51:46.068Z,1896
2016-12-14T10:52:55.888Z,2028
2016-12-14T10:54:05.365Z,2212
2016-12-14T10:55:14.615Z,2208
2016-12-14T10:56:24.128Z,2212
2016-12-14T10:57:33.310Z,2304
2016-12-14T10:58:42.808Z,2416
2016-12-14T10:59:52.597Z,2296
2016-12-14T11:01:02.397Z,2248
2016-12-14T11:02:12.228Z,2312
2016-12-14T11:03:21.859Z,2296
2016-12-14T11:04:31.683Z,2388
2016-12-14T11:05:41.160Z,2416
2016-12-14T11:06:50.663Z,2320
2016-12-14T11:07:59.720Z,2208
2016-12-14T11:09:09.512Z,2344
2016-12-14T11:10:19.291Z,2476
2016-12-14T11:11:29.074Z,2304
2016-12-14T11:12:38.284Z,1948
2016-12-14T11:13:48.100Z,1896
2016-12-14T11:14:57.290Z,1916
2016-12-14T11:16:06.780Z,1768
2016-12-14T11:17:16.261Z,1596
2016-12-14T11:18:26.095Z,1604
2016-12-14T11:19:35.611Z,1688
2016-12-14T11:20:45.423Z,1780
2016-12-14T11:21:55.201Z,1616
2016-12-14T11:23:04.360Z,1440
2016-12-14T11:24:14.198Z,1356
2016-12-14T11:25:23.690Z,1400
2016-12-14T11:26:33.164Z,1384
2016-12-14T11:27:43.032Z,1420
2016-12-14T11:28:52.598Z,1384
2016-12-14T11:30:01.484Z,1388
2016-12-14T11:31:10.663Z,1300
2016-12-14T11:32:20.158Z,1256
2016-12-14T11:33:29.667Z,1332
2016-12-14T11:34:39.471Z,1344
2016-12-14T11:35:49.429Z,1360
2016-12-14T11:36:58.905Z,1444
2016-12-14T11:38:08.693Z,1432
2016-12-14T11:39:18.210Z,1368
2016-12-14T11:40:28.064Z,1276
2016-12-14T11:41:37.880Z,1312
2016-12-14T11:42:47.405Z,1304
2016-12-14T11:43:56.281Z,1372
2016-12-14T11:45:05.784Z,1420
2016-12-14T11:46:15.015Z,1404
2016-12-14T11:47:24.497Z,1332
2016-12-14T11:48:33.987Z,1312
2016-12-14T11:49:43.872Z,1372
2016-12-14T11:50:53.392Z,1424
2016-12-14T11:52:02.963Z,1584
2016-12-14T11:53:12.501Z,1640
2016-12-14T11:54:21.665Z,1684
2016-12-14T11:55:31.447Z,1568
2016-12-14T11:56:40.933Z,1260
2016-12-14T11:57:50.845Z,992
2016-12-14T11:59:00.682Z,936
2016-12-14T12:00:10.477Z,888
2016-12-14T12:01:20.275Z,868
2016-12-14T12:02:30.113Z,928
2016-12-14T12:03:39.640Z,904
2016-12-14T12:04:49.128Z,884
2016-12-14T12:05:58.934Z,912
2016-12-14T12:07:08.748Z,920
2016-12-14T12:08:18.285Z,976
2016-12-14T12:09:27.784Z,976
2016-12-14T12:10:37.417Z,904
2016-12-14T12:11:47.202Z,888
2016-12-14T12:12:57.021Z,944
2016-12-14T12:14:06.845Z,920
2016-12-14T12:15:16.066Z,884
2016-12-14T12:16:25.871Z,820
2016-12-14T12:17:35.375Z,796
2016-12-14T12:18:44.861Z,800
2016-12-14T12:19:54.712Z,776
2016-12-14T12:21:04.456Z,848
2016-12-14T12:22:13.939Z,904
2016-12-14T12:23:23.733Z,892
2016-12-14T12:24:33.691Z,848
2016-12-14T12:25:43.186Z,856
2016-12-14T12:26:53.031Z,892
2016-12-14T12:28:02.836Z,864
2016-12-14T12:29:12.006Z,844
2016-12-14T12:30:21.828Z,956
2016-12-14T12:31:30.985Z,976
2016-12-14T12:32:40.499Z,992
2016-12-14T12:33:49.975Z,1136
2016-12-14T12:34:59.819Z,1264
2016-12-14T12:36:09.309Z,1368
2016-12-14T12:37:18.814Z,1752
2016-12-14T12:38:28.396Z,1996
2016-12-14T12:39:38.033Z,1956
2016-12-14T12:40:47.504Z,1980
2016-12-14T12:41:57.007Z,1840
2016-12-14T12:43:06.833Z,1916
2016-12-14T12:44:16.312Z,2032
2016-12-14T12:45:25.871Z,2184
2016-12-14T12:46:35.448Z,2272
2016-12-14T12:47:45.293Z,2188
2016-12-14T12:48:55.214Z,2120
2016-12-14T12:50:04.710Z,2040
2016-12-14T12:51:14.508Z,1896
2016-12-14T12:52:24.036Z,1708
2016-12-14T12:53:33.235Z,1436
2016-12-14T12:54:42.718Z,1264
2016-12-14T12:55:52.520Z,1196
2016-12-14T12:57:02.000Z,1136
2016-12-14T12:58:11.647Z,960
2016-12-14T12:59:21.127Z,896
2016-12-14T13:00:30.953Z,760
2016-12-14T13:01:40.460Z,628
2016-12-14T13:02:49.979Z,588
2016-12-14T13:03:59.481Z,668
2016-12-14T13:05:09.313Z,744
2016-12-14T13:06:18.911Z,804
2016-12-14T13:07:28.453Z,796
2016-12-14T13:08:38.239Z,796
2016-12-14T13:09:47.730Z,832
2016-12-14T13:10:57.283Z,904
2016-12-14T13:12:06.211Z,988
2016-12-14T13:13:15.711Z,1016
2016-12-14T13:14:25.528Z,948
2016-12-14T13:15:35.042Z,864
2016-12-14T13:16:44.548Z,788
2016-12-14T13:17:54.354Z,740
2016-12-14T13:19:03.841Z,748
2016-12-14T13:20:13.368Z,692
2016-12-14T13:21:22.877Z,692
2016-12-14T13:22:32.749Z,724
2016-12-14T13:23:42.231Z,704
2016-12-14T13:24:51.415Z,624
2016-12-14T13:26:00.904Z,560
2016-12-14T13:27:10.371Z,532
2016-12-14T13:28:20.401Z,648
2016-12-14T13:29:30.236Z,752
2016-12-14T13:30:40.028Z,892
2016-12-14T13:31:49.608Z,1044
2016-12-14T13:32:59.420Z,1144
2016-12-14T13:34:08.915Z,1132
2016-12-14T13:35:18.736Z,1024
2016-12-14T13:36:28.559Z,840
2016-12-14T13:37:37.418Z,684
2016-12-14T13:38:47.317Z,664
2016-12-14T13:39:57.107Z,568
2016-12-14T13:41:06.329Z,452
2016-12-14T13:42:16.181Z,384
2016-12-14T13:43:25.655Z,392
2016-12-14T13:44:35.696Z,396
2016-12-14T13:45:45.516Z,408
2016-12-14T13:46:55.064Z,424
2016-12-14T13:48:04.539Z,504
2016-12-14T13:49:14.372Z,472
2016-12-14T13:50:24.206Z,496
2016-12-14T13:51:33.917Z,496
2016-12-14T13:52:43.750Z,488
2016-12-14T13:53:53.574Z,516
2016-12-14T13:55:03.071Z,512
2016-12-14T13:56:12.880Z,564
2016-12-14T13:57:22.398Z,540
2016-12-14T13:58:31.765Z,500
2016-12-14T13:59:41.548Z,484
2016-12-14T14:00:51.365Z,488
2016-12-14T14:02:01.207Z,508
2016-12-14T14:03:10.712Z,520
2016-12-14T14:04:20.319Z,524
2016-12-14T14:05:29.863Z,484
2016-12-14T14:06:39.343Z,496
2016-12-14T14:07:48.895Z,492
2016-12-14T14:08:58.777Z,468
2016-12-14T14:10:08.306Z,440
2016-12-14T14:11:18.120Z,404
2016-12-14T14:12:27.297Z,356
2016-12-14T14:13:36.261Z,340
2016-12-14T14:14:45.455Z,340
2016-12-14T14:15:54.951Z,320
2016-12-14T14:17:04.472Z,308
2016-12-14T14:18:13.948Z,320
2016-12-14T14:19:23.794Z,340
2016-12-14T14:20:33.330Z,344
2016-12-14T14:21:43.115Z,328
2016-12-14T14:22:52.929Z,308
2016-12-14T14:24:02.724Z,296
2016-12-14T14:25:12.559Z,292
2016-12-14T14:26:22.345Z,296
2016-12-14T14:27:31.848Z,324
2016-12-14T14:28:41.800Z,340
2016-12-14T14:29:51.665Z,304
2016-12-14T14:31:00.950Z,232
2016-12-14T14:32:10.447Z,208
2016-12-14T14:33:20.245Z,176
2016-12-14T14:34:30.043Z,168
2016-12-14T14:35:39.892Z,176
2016-12-14T14:36:49.407Z,164
2016-12-14T14:37:58.928Z,176
2016-12-14T14:39:08.411Z,184
2016-12-14T14:40:18.202Z,160
2016-12-14T14:41:28.046Z,148
2016-12-14T14:42:37.833Z,148
2016-12-14T14:43:47.068Z,148
2016-12-14T14:44:56.244Z,136
2016-12-14T14:46:05.736Z,120
2016-12-14T14:47:14.912Z,108
2016-12-14T14:48:24.715Z,84
2016-12-14T14:49:34.534Z,76
2016-12-14T14:50:43.755Z,64
2016-12-14T14:51:53.264Z,68
2016-12-14T14:53:02.751Z,64
2016-12-14T14:54:12.611Z,60
2016-12-14T14:55:22.427Z,52
2016-12-14T14:56:32.002Z,48
2016-12-14T14:57:41.556Z,44
2016-12-14T14:58:50.738Z,40
2016-12-14T15:00:00.355Z,36
2016-12-14T15:01:09.530Z,36
2016-12-14T15:02:19.381Z,28
2016-12-14T15:03:29.210Z,28
2016-12-14T15:04:38.497Z,24
2016-12-14T15:05:47.993Z,24
2016-12-14T15:06:57.218Z,28
2016-12-14T15:08:07.000Z,24
2016-12-14T15:09:16.182Z,24
2016-12-14T15:10:25.718Z,20
2016-12-14T15:11:35.662Z,20
2016-12-14T15:12:45.169Z,20
2016-12-14T15:13:54.784Z,16
2016-12-14T15:15:04.614Z,12
2016-12-14T15:16:13.781Z,12
2016-12-14T15:17:23.571Z,12
2016-12-14T15:18:32.507Z,12
2016-12-14T15:19:42.299Z,8
2016-12-14T15:20:51.485Z,4
2016-12-14T15:22:00.977Z,4
2016-12-14T15:23:10.815Z,4
2016-12-14T15:24:20.825Z,4
2016-12-14T15:25:30.028Z,0
2016-12-14T15:26:39.924Z,4
2016-12-14T15:27:49.729Z,4
2016-12-14T15:28:59.552Z,0
2016-12-14T15:30:09.352Z,0
2016-12-14T15:31:19.237Z,0
2016-12-14T15:32:28.840Z,0
2016-12-14T15:33:38.373Z,0
2016-12-14T15:34:47.858Z,0
2016-12-14T15:35:57.417Z,0
2016-12-14T15:37:07.222Z,0
2016-12-14T15:38:16.758Z,0
2016-12-14T15:39:26.570Z,0
2016-12-14T15:40:36.196Z,0
2016-12-14T15:41:45.683Z,0
2016-12-14T15:42:54.854Z,0
2016-12-14T15:44:04.777Z,0
2016-12-14T15:45:14.587Z,0
2016-12-14T15:46:24.412Z,0
2016-12-14T15:47:33.621Z,0
2016-12-14T15:48:43.128Z,0
2016-12-14T15:49:52.614Z,0
2016-12-14T15:51:02.403Z,0
2016-12-14T15:52:12.187Z,0
2016-12-14T15:53:21.776Z,0
2016-12-14T15:54:31.340Z,0
2016-12-14T15:55:40.977Z,0
2016-12-14T15:56:50.466Z,0
2016-12-14T15:58:00.294Z,0
2016-12-14T15:59:09.802Z,0
2016-12-14T16:00:18.969Z,0
2016-12-14T16:01:28.611Z,0
2016-12-14T16:02:38.102Z,0
2016-12-14T16:03:47.622Z,0
2016-12-14T16:04:56.798Z,0
2016-12-14T16:06:06.608Z,0
2016-12-14T16:07:16.262Z,0
2016-12-14T16:08:26.075Z,0
2016-12-14T16:09:35.256Z,0
2016-12-14T16:10:45.061Z,0
2016-12-14T16:11:54.553Z,0
2016-12-14T16:13:04.364Z,0
2016-12-14T16:14:14.199Z,0
2016-12-14T16:15:23.674Z,0
2016-12-14T16:16:33.174Z,0
2016-12-14T16:17:42.666Z,0
2016-12-14T16:18:52.157Z,0
2016-12-14T16:20:01.655Z,0
2016-12-14T16:21:10.539Z,0
2016-12-14T16:22:20.385Z,0
2016-12-14T16:23:29.934Z,0
2016-12-14T16:24:39.428Z,0
2016-12-14T16:25:48.961Z,0
2016-12-14T16:26:58.758Z,0